sensor_id;sensor_type;location;lat;lon;timestamp;P1;durP1;ratioP1;P2;durP2;ratioP2
78903;SDS011;68291;49.602;8.722;2023-04-29T00:01:50;26.37;;;3.30;;
78903;SDS011;68291;49.602;8.722;2023-04-29T00:04:25;32.30;;;3.40;;
78903;SDS011;68291;49.602;8.722;2023-04-29T00:07:10;8.60;;;2.90;;
78903;SDS011;68291;49.602;8.722;2023-04-29T00:10:05;3.00;;;2.80;;
78903;SDS011;68291;49.602;8.722;2023-04-29T00:12:53;4.37;;;2.90;;
78903;SDS011;68291;49.602;8.722;2023-04-29T00:15:25;5.77;;;2.90;;
78903;SDS011;68291;49.602;8.722;2023-04-29T00:18:20;7.23;;;2.93;;
78903;SDS011;68291;49.602;8.722;2023-04-29T00:21:09;12.00;;;3.80;;
78903;SDS011;68291;49.602;8.722;2023-04-29T00:24:08;23.77;;;4.53;;
78903;SDS011;68291;49.602;8.722;2023-04-29T00:26:55;31.13;;;4.60;;
78903;SDS011;68291;49.602;8.722;2023-04-29T00:29:42;17.00;;;3.87;;
78903;SDS011;68291;49.602;8.722;2023-04-29T00:32:14;36.20;;;4.03;;
78903;SDS011;68291;49.602;8.722;2023-04-29T00:35:04;17.17;;;3.80;;
78903;SDS011;68291;49.602;8.722;2023-04-29T00:37:49;54.00;;;5.27;;
78903;SDS011;68291;49.602;8.722;2023-04-29T00:40:20;28.10;;;3.80;;
78903;SDS011;68291;49.602;8.722;2023-04-29T00:42:54;11.77;;;3.80;;
78903;SDS011;68291;49.602;8.722;2023-04-29T00:45:31;56.87;;;4.60;;
78903;SDS011;68291;49.602;8.722;2023-04-29T00:48:08;17.10;;;4.00;;
78903;SDS011;68291;49.602;8.722;2023-04-29T00:51:04;25.37;;;4.30;;
78903;SDS011;68291;49.602;8.722;2023-04-29T00:53:42;55.67;;;5.37;;
78903;SDS011;68291;49.602;8.722;2023-04-29T00:56:35;57.13;;;5.83;;
78903;SDS011;68291;49.602;8.722;2023-04-29T00:59:21;23.37;;;4.60;;
78903;SDS011;68291;49.602;8.722;2023-04-29T01:05:05;38.63;;;5.20;;
78903;SDS011;68291;49.602;8.722;2023-04-29T01:07:57;29.43;;;5.07;;
78903;SDS011;68291;49.602;8.722;2023-04-29T01:10:53;66.83;;;6.17;;
78903;SDS011;68291;49.602;8.722;2023-04-29T01:13:52;62.23;;;6.30;;
78903;SDS011;68291;49.602;8.722;2023-04-29T01:16:33;63.23;;;5.73;;
78903;SDS011;68291;49.602;8.722;2023-04-29T01:19:19;49.90;;;5.13;;
78903;SDS011;68291;49.602;8.722;2023-04-29T01:22:34;66.53;;;5.60;;
78903;SDS011;68291;49.602;8.722;2023-04-29T01:25:24;45.87;;;5.33;;
78903;SDS011;68291;49.602;8.722;2023-04-29T01:28:39;41.53;;;4.67;;
78903;SDS011;68291;49.602;8.722;2023-04-29T01:31:37;50.57;;;4.67;;
78903;SDS011;68291;49.602;8.722;2023-04-29T01:34:22;61.23;;;5.33;;
78903;SDS011;68291;49.602;8.722;2023-04-29T01:37:13;62.93;;;5.57;;
78903;SDS011;68291;49.602;8.722;2023-04-29T01:39:56;61.47;;;5.40;;
78903;SDS011;68291;49.602;8.722;2023-04-29T01:43:15;38.57;;;4.50;;
78903;SDS011;68291;49.602;8.722;2023-04-29T01:46:08;21.60;;;4.10;;
78903;SDS011;68291;49.602;8.722;2023-04-29T01:48:59;32.67;;;4.03;;
78903;SDS011;68291;49.602;8.722;2023-04-29T01:51:55;25.07;;;4.10;;
78903;SDS011;68291;49.602;8.722;2023-04-29T01:54:50;26.30;;;3.97;;
78903;SDS011;68291;49.602;8.722;2023-04-29T01:57:26;9.00;;;3.47;;
78903;SDS011;68291;49.602;8.722;2023-04-29T02:00:21;33.23;;;4.20;;
78903;SDS011;68291;49.602;8.722;2023-04-29T02:03:08;34.27;;;4.57;;
78903;SDS011;68291;49.602;8.722;2023-04-29T02:05:49;21.30;;;4.37;;
78903;SDS011;68291;49.602;8.722;2023-04-29T02:08:31;34.77;;;4.37;;
78903;SDS011;68291;49.602;8.722;2023-04-29T02:11:10;25.03;;;4.50;;
78903;SDS011;68291;49.602;8.722;2023-04-29T02:13:41;37.33;;;4.77;;
78903;SDS011;68291;49.602;8.722;2023-04-29T02:16:25;25.17;;;4.60;;
78903;SDS011;68291;49.602;8.722;2023-04-29T02:19:19;43.67;;;4.53;;
78903;SDS011;68291;49.602;8.722;2023-04-29T02:22:12;22.80;;;4.33;;
78903;SDS011;68291;49.602;8.722;2023-04-29T02:25:10;30.10;;;4.30;;
78903;SDS011;68291;49.602;8.722;2023-04-29T02:28:03;17.83;;;4.27;;
78903;SDS011;68291;49.602;8.722;2023-04-29T02:30:49;36.33;;;4.47;;
78903;SDS011;68291;49.602;8.722;2023-04-29T02:33:36;36.20;;;4.83;;
78903;SDS011;68291;49.602;8.722;2023-04-29T02:36:09;34.30;;;4.57;;
78903;SDS011;68291;49.602;8.722;2023-04-29T02:38:42;14.77;;;4.47;;
78903;SDS011;68291;49.602;8.722;2023-04-29T02:41:24;4.80;;;4.00;;
78903;SDS011;68291;49.602;8.722;2023-04-29T02:43:55;23.93;;;4.83;;
78903;SDS011;68291;49.602;8.722;2023-04-29T02:46:31;28.27;;;4.90;;
78903;SDS011;68291;49.602;8.722;2023-04-29T02:49:11;8.93;;;4.07;;
78903;SDS011;68291;49.602;8.722;2023-04-29T02:51:42;10.17;;;3.80;;
78903;SDS011;68291;49.602;8.722;2023-04-29T02:54:22;20.03;;;4.40;;
78903;SDS011;68291;49.602;8.722;2023-04-29T02:57:12;10.10;;;4.03;;
78903;SDS011;68291;49.602;8.722;2023-04-29T03:00:09;5.10;;;3.50;;
78903;SDS011;68291;49.602;8.722;2023-04-29T03:03:05;11.43;;;3.90;;
78903;SDS011;68291;49.602;8.722;2023-04-29T03:08:54;31.63;;;4.10;;
78903;SDS011;68291;49.602;8.722;2023-04-29T03:11:25;15.10;;;3.67;;
78903;SDS011;68291;49.602;8.722;2023-04-29T03:14:05;5.57;;;3.33;;
78903;SDS011;68291;49.602;8.722;2023-04-29T03:16:51;10.37;;;3.70;;
78903;SDS011;68291;49.602;8.722;2023-04-29T03:19:27;14.73;;;4.00;;
78903;SDS011;68291;49.602;8.722;2023-04-29T03:22:21;11.87;;;3.80;;
78903;SDS011;68291;49.602;8.722;2023-04-29T03:24:51;7.13;;;4.00;;
78903;SDS011;68291;49.602;8.722;2023-04-29T03:27:36;15.37;;;4.40;;
78903;SDS011;68291;49.602;8.722;2023-04-29T03:30:17;6.93;;;3.50;;
78903;SDS011;68291;49.602;8.722;2023-04-29T03:33:07;4.03;;;3.60;;
78903;SDS011;68291;49.602;8.722;2023-04-29T03:35:50;7.37;;;3.40;;
78903;SDS011;68291;49.602;8.722;2023-04-29T03:38:55;32.23;;;4.03;;
78903;SDS011;68291;49.602;8.722;2023-04-29T03:41:37;8.33;;;3.23;;
78903;SDS011;68291;49.602;8.722;2023-04-29T03:44:33;3.40;;;3.03;;
78903;SDS011;68291;49.602;8.722;2023-04-29T03:47:22;13.23;;;2.80;;
78903;SDS011;68291;49.602;8.722;2023-04-29T03:50:10;26.57;;;3.60;;
78903;SDS011;68291;49.602;8.722;2023-04-29T03:53:06;9.00;;;2.90;;
78903;SDS011;68291;49.602;8.722;2023-04-29T03:55:59;3.03;;;2.73;;
78903;SDS011;68291;49.602;8.722;2023-04-29T03:58:39;6.17;;;3.10;;
78903;SDS011;68291;49.602;8.722;2023-04-29T04:01:35;5.50;;;2.90;;
78903;SDS011;68291;49.602;8.722;2023-04-29T04:04:13;3.33;;;2.80;;
78903;SDS011;68291;49.602;8.722;2023-04-29T04:06:58;6.20;;;2.90;;
78903;SDS011;68291;49.602;8.722;2023-04-29T04:09:58;4.03;;;2.30;;
78903;SDS011;68291;49.602;8.722;2023-04-29T04:15:50;3.43;;;2.60;;
78903;SDS011;68291;49.602;8.722;2023-04-29T04:18:31;2.67;;;2.40;;
78903;SDS011;68291;49.602;8.722;2023-04-29T04:21:05;3.87;;;2.47;;
78903;SDS011;68291;49.602;8.722;2023-04-29T04:23:55;2.93;;;2.20;;
78903;SDS011;68291;49.602;8.722;2023-04-29T04:26:52;5.33;;;2.70;;
78903;SDS011;68291;49.602;8.722;2023-04-29T04:29:38;3.20;;;2.90;;
78903;SDS011;68291;49.602;8.722;2023-04-29T04:32:15;3.63;;;2.80;;
78903;SDS011;68291;49.602;8.722;2023-04-29T04:34:45;3.23;;;2.50;;
78903;SDS011;68291;49.602;8.722;2023-04-29T04:37:32;3.00;;;2.70;;
78903;SDS011;68291;49.602;8.722;2023-04-29T04:40:06;2.77;;;2.57;;
78903;SDS011;68291;49.602;8.722;2023-04-29T04:42:57;7.53;;;2.67;;
78903;SDS011;68291;49.602;8.722;2023-04-29T04:45:52;7.63;;;2.53;;
78903;SDS011;68291;49.602;8.722;2023-04-29T04:48:25;4.63;;;2.60;;
78903;SDS011;68291;49.602;8.722;2023-04-29T04:51:26;5.57;;;2.77;;
78903;SDS011;68291;49.602;8.722;2023-04-29T04:54:06;2.60;;;2.40;;
78903;SDS011;68291;49.602;8.722;2023-04-29T04:57:14;3.43;;;2.53;;
78903;SDS011;68291;49.602;8.722;2023-04-29T05:00:16;3.77;;;2.60;;
78903;SDS011;68291;49.602;8.722;2023-04-29T05:03:12;5.17;;;2.60;;
78903;SDS011;68291;49.602;8.722;2023-04-29T05:05:52;3.07;;;2.83;;
78903;SDS011;68291;49.602;8.722;2023-04-29T05:08:24;3.13;;;2.83;;
78903;SDS011;68291;49.602;8.722;2023-04-29T05:11:05;5.90;;;2.60;;
78903;SDS011;68291;49.602;8.722;2023-04-29T05:14:06;3.43;;;2.83;;
78903;SDS011;68291;49.602;8.722;2023-04-29T05:17:03;4.20;;;2.60;;
78903;SDS011;68291;49.602;8.722;2023-04-29T05:19:47;5.03;;;2.70;;
78903;SDS011;68291;49.602;8.722;2023-04-29T05:22:37;4.37;;;2.57;;
78903;SDS011;68291;49.602;8.722;2023-04-29T05:25:24;2.80;;;2.47;;
78903;SDS011;68291;49.602;8.722;2023-04-29T05:28:20;3.77;;;2.70;;
78903;SDS011;68291;49.602;8.722;2023-04-29T05:30:55;3.90;;;2.90;;
78903;SDS011;68291;49.602;8.722;2023-04-29T05:33:30;3.30;;;3.00;;
78903;SDS011;68291;49.602;8.722;2023-04-29T05:36:26;2.83;;;2.50;;
78903;SDS011;68291;49.602;8.722;2023-04-29T05:38:59;3.57;;;2.80;;
78903;SDS011;68291;49.602;8.722;2023-04-29T05:41:32;3.13;;;2.70;;
78903;SDS011;68291;49.602;8.722;2023-04-29T05:44:22;3.83;;;2.47;;
78903;SDS011;68291;49.602;8.722;2023-04-29T05:47:21;4.63;;;2.27;;
78903;SDS011;68291;49.602;8.722;2023-04-29T05:50:17;5.30;;;2.53;;
78903;SDS011;68291;49.602;8.722;2023-04-29T05:53:14;2.70;;;2.50;;
78903;SDS011;68291;49.602;8.722;2023-04-29T05:56:03;2.70;;;2.43;;
78903;SDS011;68291;49.602;8.722;2023-04-29T05:58:35;4.40;;;2.53;;
78903;SDS011;68291;49.602;8.722;2023-04-29T06:01:24;3.17;;;2.73;;
78903;SDS011;68291;49.602;8.722;2023-04-29T06:04:03;2.67;;;2.27;;
78903;SDS011;68291;49.602;8.722;2023-04-29T06:06:59;3.70;;;2.20;;
78903;SDS011;68291;49.602;8.722;2023-04-29T06:10:24;2.83;;;2.43;;
78903;SDS011;68291;49.602;8.722;2023-04-29T06:13:16;2.50;;;2.30;;
78903;SDS011;68291;49.602;8.722;2023-04-29T06:16:09;2.40;;;2.20;;
78903;SDS011;68291;49.602;8.722;2023-04-29T06:18:55;2.50;;;2.30;;
78903;SDS011;68291;49.602;8.722;2023-04-29T06:21:43;2.80;;;2.60;;
78903;SDS011;68291;49.602;8.722;2023-04-29T06:24:24;3.27;;;2.77;;
78903;SDS011;68291;49.602;8.722;2023-04-29T06:27:17;2.87;;;2.13;;
78903;SDS011;68291;49.602;8.722;2023-04-29T06:30:00;3.30;;;3.00;;
78903;SDS011;68291;49.602;8.722;2023-04-29T06:32:42;3.43;;;3.13;;
78903;SDS011;68291;49.602;8.722;2023-04-29T06:35:23;4.03;;;3.63;;
78903;SDS011;68291;49.602;8.722;2023-04-29T06:38:20;3.30;;;3.00;;
78903;SDS011;68291;49.602;8.722;2023-04-29T06:41:18;5.10;;;3.20;;
78903;SDS011;68291;49.602;8.722;2023-04-29T06:44:08;7.27;;;5.77;;
78903;SDS011;68291;49.602;8.722;2023-04-29T06:47:14;6.27;;;5.67;;
78903;SDS011;68291;49.602;8.722;2023-04-29T06:50:09;7.37;;;6.00;;
78903;SDS011;68291;49.602;8.722;2023-04-29T06:52:49;8.50;;;6.13;;
78903;SDS011;68291;49.602;8.722;2023-04-29T06:55:40;8.53;;;7.37;;
78903;SDS011;68291;49.602;8.722;2023-04-29T06:58:32;10.33;;;8.83;;
78903;SDS011;68291;49.602;8.722;2023-04-29T07:01:19;11.03;;;7.23;;
78903;SDS011;68291;49.602;8.722;2023-04-29T07:03:58;11.00;;;7.70;;
78903;SDS011;68291;49.602;8.722;2023-04-29T07:06:32;8.83;;;8.00;;
78903;SDS011;68291;49.602;8.722;2023-04-29T07:09:03;11.57;;;8.80;;
78903;SDS011;68291;49.602;8.722;2023-04-29T07:11:52;11.90;;;8.30;;
78903;SDS011;68291;49.602;8.722;2023-04-29T07:14:37;14.37;;;9.77;;
78903;SDS011;68291;49.602;8.722;2023-04-29T07:17:28;12.03;;;9.60;;
78903;SDS011;68291;49.602;8.722;2023-04-29T07:20:17;14.47;;;10.63;;
78903;SDS011;68291;49.602;8.722;2023-04-29T07:22:57;13.00;;;9.97;;
78903;SDS011;68291;49.602;8.722;2023-04-29T07:25:49;11.30;;;10.00;;
78903;SDS011;68291;49.602;8.722;2023-04-29T07:28:44;10.60;;;9.50;;
78903;SDS011;68291;49.602;8.722;2023-04-29T07:31:39;11.40;;;10.20;;
78903;SDS011;68291;49.602;8.722;2023-04-29T07:37:27;10.47;;;9.30;;
78903;SDS011;68291;49.602;8.722;2023-04-29T07:39:59;12.00;;;9.83;;
78903;SDS011;68291;49.602;8.722;2023-04-29T07:42:38;11.23;;;8.80;;
78903;SDS011;68291;49.602;8.722;2023-04-29T07:45:11;13.30;;;10.03;;
78903;SDS011;68291;49.602;8.722;2023-04-29T07:47:45;11.57;;;10.37;;
78903;SDS011;68291;49.602;8.722;2023-04-29T07:50:30;11.13;;;9.53;;
78903;SDS011;68291;49.602;8.722;2023-04-29T07:53:13;11.83;;;9.77;;
78903;SDS011;68291;49.602;8.722;2023-04-29T07:55:44;10.60;;;9.50;;
78903;SDS011;68291;49.602;8.722;2023-04-29T07:58:17;11.43;;;9.57;;
78903;SDS011;68291;49.602;8.722;2023-04-29T08:01:05;13.90;;;9.40;;
78903;SDS011;68291;49.602;8.722;2023-04-29T08:03:56;12.10;;;8.80;;
78903;SDS011;68291;49.602;8.722;2023-04-29T08:06:30;10.17;;;8.63;;
78903;SDS011;68291;49.602;8.722;2023-04-29T08:09:27;10.73;;;8.73;;
78903;SDS011;68291;49.602;8.722;2023-04-29T08:12:25;10.67;;;8.90;;
78903;SDS011;68291;49.602;8.722;2023-04-29T08:15:14;10.10;;;7.73;;
78903;SDS011;68291;49.602;8.722;2023-04-29T08:17:52;9.37;;;7.00;;
78903;SDS011;68291;49.602;8.722;2023-04-29T08:20:29;7.87;;;6.67;;
78903;SDS011;68291;49.602;8.722;2023-04-29T08:26:10;7.63;;;6.17;;
78903;SDS011;68291;49.602;8.722;2023-04-29T08:28:40;9.07;;;6.13;;
78903;SDS011;68291;49.602;8.722;2023-04-29T08:31:21;7.47;;;6.33;;
78903;SDS011;68291;49.602;8.722;2023-04-29T08:33:52;6.77;;;5.97;;
78903;SDS011;68291;49.602;8.722;2023-04-29T08:36:22;7.73;;;5.80;;
78903;SDS011;68291;49.602;8.722;2023-04-29T08:38:55;6.90;;;5.60;;
78903;SDS011;68291;49.602;8.722;2023-04-29T08:41:32;7.23;;;5.37;;
78903;SDS011;68291;49.602;8.722;2023-04-29T08:44:13;6.17;;;5.57;;
78903;SDS011;68291;49.602;8.722;2023-04-29T08:46:47;6.33;;;4.93;;
78903;SDS011;68291;49.602;8.722;2023-04-29T08:49:26;5.87;;;4.97;;
78903;SDS011;68291;49.602;8.722;2023-04-29T08:52:04;7.13;;;5.23;;
78903;SDS011;68291;49.602;8.722;2023-04-29T08:54:40;7.73;;;5.10;;
78903;SDS011;68291;49.602;8.722;2023-04-29T08:57:23;6.77;;;5.27;;
78903;SDS011;68291;49.602;8.722;2023-04-29T09:00:16;7.23;;;5.37;;
78903;SDS011;68291;49.602;8.722;2023-04-29T09:02:49;6.10;;;5.33;;
78903;SDS011;68291;49.602;8.722;2023-04-29T09:05:25;6.83;;;5.83;;
78903;SDS011;68291;49.602;8.722;2023-04-29T09:08:14;5.87;;;5.27;;
78903;SDS011;68291;49.602;8.722;2023-04-29T09:11:01;6.93;;;5.40;;
78903;SDS011;68291;49.602;8.722;2023-04-29T09:13:57;8.83;;;5.70;;
78903;SDS011;68291;49.602;8.722;2023-04-29T09:16:28;7.07;;;5.87;;
78903;SDS011;68291;49.602;8.722;2023-04-29T09:19:01;5.90;;;4.97;;
78903;SDS011;68291;49.602;8.722;2023-04-29T09:21:40;6.13;;;5.20;;
78903;SDS011;68291;49.602;8.722;2023-04-29T09:24:24;5.27;;;4.77;;
78903;SDS011;68291;49.602;8.722;2023-04-29T09:26:58;6.45;;;5.85;;
78903;SDS011;68291;49.602;8.722;2023-04-29T09:29:48;5.57;;;4.97;;
78903;SDS011;68291;49.602;8.722;2023-04-29T09:32:30;5.80;;;4.73;;
78903;SDS011;68291;49.602;8.722;2023-04-29T09:35:24;5.60;;;4.60;;
78903;SDS011;68291;49.602;8.722;2023-04-29T09:38:09;4.87;;;4.40;;
78903;SDS011;68291;49.602;8.722;2023-04-29T09:40:42;4.60;;;3.87;;
78903;SDS011;68291;49.602;8.722;2023-04-29T09:43:42;5.57;;;4.70;;
78903;SDS011;68291;49.602;8.722;2023-04-29T09:46:21;4.50;;;4.10;;
78903;SDS011;68291;49.602;8.722;2023-04-29T09:49:00;6.43;;;4.70;;
78903;SDS011;68291;49.602;8.722;2023-04-29T09:51:44;6.53;;;4.33;;
78903;SDS011;68291;49.602;8.722;2023-04-29T09:54:33;5.17;;;4.63;;
78903;SDS011;68291;49.602;8.722;2023-04-29T09:57:23;5.57;;;4.67;;
78903;SDS011;68291;49.602;8.722;2023-04-29T10:00:20;5.40;;;4.90;;
78903;SDS011;68291;49.602;8.722;2023-04-29T10:03:08;6.03;;;5.30;;
78903;SDS011;68291;49.602;8.722;2023-04-29T10:05:49;6.20;;;5.27;;
78903;SDS011;68291;49.602;8.722;2023-04-29T10:08:33;7.57;;;5.50;;
78903;SDS011;68291;49.602;8.722;2023-04-29T10:11:14;7.90;;;6.00;;
78903;SDS011;68291;49.602;8.722;2023-04-29T10:13:51;6.70;;;6.00;;
78903;SDS011;68291;49.602;8.722;2023-04-29T10:16:33;7.07;;;5.47;;
78903;SDS011;68291;49.602;8.722;2023-04-29T10:19:29;6.27;;;5.17;;
78903;SDS011;68291;49.602;8.722;2023-04-29T10:22:18;6.90;;;6.10;;
78903;SDS011;68291;49.602;8.722;2023-04-29T10:25:11;7.43;;;6.27;;
78903;SDS011;68291;49.602;8.722;2023-04-29T10:27:52;5.50;;;4.73;;
78903;SDS011;68291;49.602;8.722;2023-04-29T10:30:33;6.93;;;5.07;;
78903;SDS011;68291;49.602;8.722;2023-04-29T10:33:21;8.37;;;5.20;;
78903;SDS011;68291;49.602;8.722;2023-04-29T10:35:55;6.60;;;5.67;;
78903;SDS011;68291;49.602;8.722;2023-04-29T10:38:38;7.30;;;6.13;;
78903;SDS011;68291;49.602;8.722;2023-04-29T10:41:29;7.90;;;5.73;;
78903;SDS011;68291;49.602;8.722;2023-04-29T10:44:17;6.60;;;5.60;;
78903;SDS011;68291;49.602;8.722;2023-04-29T10:50:09;5.90;;;4.63;;
78903;SDS011;68291;49.602;8.722;2023-04-29T10:52:50;6.17;;;5.33;;
78903;SDS011;68291;49.602;8.722;2023-04-29T10:55:25;8.17;;;5.30;;
78903;SDS011;68291;49.602;8.722;2023-04-29T10:58:02;5.63;;;5.00;;
78903;SDS011;68291;49.602;8.722;2023-04-29T11:00:36;6.53;;;4.80;;
78903;SDS011;68291;49.602;8.722;2023-04-29T11:03:14;5.60;;;4.80;;
78903;SDS011;68291;49.602;8.722;2023-04-29T11:06:40;4.97;;;4.10;;
78903;SDS011;68291;49.602;8.722;2023-04-29T11:09:20;5.87;;;4.30;;
78903;SDS011;68291;49.602;8.722;2023-04-29T11:12:04;5.10;;;4.30;;
78903;SDS011;68291;49.602;8.722;2023-04-29T11:14:49;5.83;;;5.03;;
78903;SDS011;68291;49.602;8.722;2023-04-29T11:17:34;5.23;;;4.57;;
78903;SDS011;68291;49.602;8.722;2023-04-29T11:20:19;4.77;;;4.10;;
78903;SDS011;68291;49.602;8.722;2023-04-29T11:23:08;5.03;;;4.37;;
78903;SDS011;68291;49.602;8.722;2023-04-29T11:25:59;5.13;;;4.63;;
78903;SDS011;68291;49.602;8.722;2023-04-29T11:28:36;4.67;;;3.93;;
78903;SDS011;68291;49.602;8.722;2023-04-29T11:31:30;5.53;;;4.57;;
78903;SDS011;68291;49.602;8.722;2023-04-29T11:34:04;6.10;;;5.17;;
78903;SDS011;68291;49.602;8.722;2023-04-29T11:36:49;5.10;;;4.60;;
78903;SDS011;68291;49.602;8.722;2023-04-29T11:39:47;4.90;;;4.40;;
78903;SDS011;68291;49.602;8.722;2023-04-29T11:42:32;4.30;;;3.90;;
78903;SDS011;68291;49.602;8.722;2023-04-29T11:45:08;5.23;;;4.30;;
78903;SDS011;68291;49.602;8.722;2023-04-29T11:48:01;4.40;;;4.00;;
78903;SDS011;68291;49.602;8.722;2023-04-29T11:50:47;5.00;;;4.17;;
78903;SDS011;68291;49.602;8.722;2023-04-29T11:53:43;5.10;;;4.60;;
78903;SDS011;68291;49.602;8.722;2023-04-29T11:59:27;4.90;;;3.97;;
78903;SDS011;68291;49.602;8.722;2023-04-29T12:02:15;4.80;;;4.30;;
78903;SDS011;68291;49.602;8.722;2023-04-29T12:04:48;4.83;;;4.33;;
78903;SDS011;68291;49.602;8.722;2023-04-29T12:07:31;4.13;;;3.70;;
78903;SDS011;68291;49.602;8.722;2023-04-29T12:10:21;5.20;;;3.90;;
78903;SDS011;68291;49.602;8.722;2023-04-29T12:13:34;4.90;;;4.40;;
78903;SDS011;68291;49.602;8.722;2023-04-29T12:16:16;4.93;;;4.43;;
78903;SDS011;68291;49.602;8.722;2023-04-29T12:19:11;5.47;;;4.50;;
78903;SDS011;68291;49.602;8.722;2023-04-29T12:21:49;4.33;;;3.93;;
78903;SDS011;68291;49.602;8.722;2023-04-29T12:24:24;3.77;;;3.47;;
78903;SDS011;68291;49.602;8.722;2023-04-29T12:27:02;4.17;;;3.77;;
78903;SDS011;68291;49.602;8.722;2023-04-29T12:29:39;3.97;;;3.57;;
78903;SDS011;68291;49.602;8.722;2023-04-29T12:32:23;3.60;;;3.30;;
78903;SDS011;68291;49.602;8.722;2023-04-29T12:35:18;3.67;;;3.23;;
78903;SDS011;68291;49.602;8.722;2023-04-29T12:38:16;3.57;;;3.23;;
78903;SDS011;68291;49.602;8.722;2023-04-29T12:41:11;3.53;;;3.23;;
78903;SDS011;68291;49.602;8.722;2023-04-29T12:44:01;4.10;;;3.03;;
78903;SDS011;68291;49.602;8.722;2023-04-29T12:50:07;3.80;;;3.50;;
78903;SDS011;68291;49.602;8.722;2023-04-29T12:52:48;4.60;;;4.07;;
78903;SDS011;68291;49.602;8.722;2023-04-29T12:55:36;4.27;;;3.87;;
78903;SDS011;68291;49.602;8.722;2023-04-29T12:58:09;4.40;;;3.70;;
78903;SDS011;68291;49.602;8.722;2023-04-29T13:00:51;7.00;;;3.77;;
78903;SDS011;68291;49.602;8.722;2023-04-29T13:03:42;5.67;;;3.63;;
78903;SDS011;68291;49.602;8.722;2023-04-29T13:06:27;4.80;;;3.80;;
78903;SDS011;68291;49.602;8.722;2023-04-29T13:09:17;5.07;;;4.30;;
78903;SDS011;68291;49.602;8.722;2023-04-29T13:12:09;5.77;;;3.90;;
78903;SDS011;68291;49.602;8.722;2023-04-29T13:14:40;4.37;;;3.93;;
78903;SDS011;68291;49.602;8.722;2023-04-29T13:17:34;4.87;;;3.77;;
78903;SDS011;68291;49.602;8.722;2023-04-29T13:20:30;4.20;;;3.80;;
78903;SDS011;68291;49.602;8.722;2023-04-29T13:23:17;5.33;;;3.70;;
78903;SDS011;68291;49.602;8.722;2023-04-29T13:26:10;5.07;;;3.40;;
78903;SDS011;68291;49.602;8.722;2023-04-29T13:28:52;4.03;;;3.63;;
78903;SDS011;68291;49.602;8.722;2023-04-29T13:31:29;4.23;;;3.80;;
78903;SDS011;68291;49.602;8.722;2023-04-29T13:34:09;3.80;;;3.40;;
78903;SDS011;68291;49.602;8.722;2023-04-29T13:36:45;3.27;;;2.97;;
78903;SDS011;68291;49.602;8.722;2023-04-29T13:39:22;4.07;;;3.33;;
78903;SDS011;68291;49.602;8.722;2023-04-29T13:42:18;4.43;;;3.60;;
78903;SDS011;68291;49.602;8.722;2023-04-29T13:44:58;3.83;;;3.43;;
78903;SDS011;68291;49.602;8.722;2023-04-29T13:47:38;4.00;;;3.60;;
78903;SDS011;68291;49.602;8.722;2023-04-29T13:50:31;3.90;;;3.20;;
78903;SDS011;68291;49.602;8.722;2023-04-29T13:53:35;4.10;;;3.60;;
78903;SDS011;68291;49.602;8.722;2023-04-29T13:56:28;3.73;;;3.30;;
78903;SDS011;68291;49.602;8.722;2023-04-29T13:59:11;3.50;;;3.20;;
78903;SDS011;68291;49.602;8.722;2023-04-29T14:02:06;3.80;;;3.50;;
78903;SDS011;68291;49.602;8.722;2023-04-29T14:05:02;4.10;;;3.70;;
78903;SDS011;68291;49.602;8.722;2023-04-29T14:07:58;3.50;;;3.17;;
78903;SDS011;68291;49.602;8.722;2023-04-29T14:10:41;4.10;;;3.60;;
78903;SDS011;68291;49.602;8.722;2023-04-29T14:13:19;3.80;;;3.20;;
78903;SDS011;68291;49.602;8.722;2023-04-29T14:16:01;3.80;;;3.50;;
78903;SDS011;68291;49.602;8.722;2023-04-29T14:18:38;5.83;;;3.20;;
78903;SDS011;68291;49.602;8.722;2023-04-29T14:21:25;3.40;;;3.07;;
78903;SDS011;68291;49.602;8.722;2023-04-29T14:23:58;3.00;;;2.80;;
78903;SDS011;68291;49.602;8.722;2023-04-29T14:26:42;3.60;;;3.00;;
78903;SDS011;68291;49.602;8.722;2023-04-29T14:29:21;3.87;;;3.13;;
78903;SDS011;68291;49.602;8.722;2023-04-29T14:32:14;3.50;;;3.20;;
78903;SDS011;68291;49.602;8.722;2023-04-29T14:35:00;3.20;;;2.90;;
78903;SDS011;68291;49.602;8.722;2023-04-29T14:37:36;3.60;;;3.13;;
78903;SDS011;68291;49.602;8.722;2023-04-29T14:40:27;3.33;;;3.00;;
78903;SDS011;68291;49.602;8.722;2023-04-29T14:43:24;3.17;;;2.87;;
78903;SDS011;68291;49.602;8.722;2023-04-29T14:45:55;3.30;;;3.00;;
78903;SDS011;68291;49.602;8.722;2023-04-29T14:48:41;3.83;;;3.10;;
78903;SDS011;68291;49.602;8.722;2023-04-29T14:51:28;4.27;;;3.87;;
78903;SDS011;68291;49.602;8.722;2023-04-29T14:54:15;3.33;;;3.03;;
78903;SDS011;68291;49.602;8.722;2023-04-29T14:56:56;4.10;;;3.67;;
78903;SDS011;68291;49.602;8.722;2023-04-29T14:59:48;4.30;;;3.90;;
78903;SDS011;68291;49.602;8.722;2023-04-29T15:02:38;3.97;;;3.60;;
78903;SDS011;68291;49.602;8.722;2023-04-29T15:05:14;4.13;;;3.40;;
78903;SDS011;68291;49.602;8.722;2023-04-29T15:08:04;4.73;;;3.70;;
78903;SDS011;68291;49.602;8.722;2023-04-29T15:10:47;3.87;;;3.47;;
78903;SDS011;68291;49.602;8.722;2023-04-29T15:13:40;4.47;;;3.47;;
78903;SDS011;68291;49.602;8.722;2023-04-29T15:16:29;3.77;;;3.47;;
78903;SDS011;68291;49.602;8.722;2023-04-29T15:19:02;4.13;;;3.73;;
78903;SDS011;68291;49.602;8.722;2023-04-29T15:21:43;4.83;;;3.30;;
78903;SDS011;68291;49.602;8.722;2023-04-29T15:24:16;3.83;;;3.43;;
78903;SDS011;68291;49.602;8.722;2023-04-29T15:26:58;4.00;;;3.60;;
78903;SDS011;68291;49.602;8.722;2023-04-29T15:29:29;4.27;;;3.53;;
78903;SDS011;68291;49.602;8.722;2023-04-29T15:35:08;5.13;;;4.03;;
78903;SDS011;68291;49.602;8.722;2023-04-29T15:37:56;3.93;;;3.47;;
78903;SDS011;68291;49.602;8.722;2023-04-29T15:40:44;4.50;;;3.40;;
78903;SDS011;68291;49.602;8.722;2023-04-29T15:43:15;4.73;;;3.57;;
78903;SDS011;68291;49.602;8.722;2023-04-29T15:46:01;4.73;;;4.17;;
78903;SDS011;68291;49.602;8.722;2023-04-29T15:51:52;3.93;;;3.40;;
78903;SDS011;68291;49.602;8.722;2023-04-29T15:54:23;3.67;;;3.23;;
78903;SDS011;68291;49.602;8.722;2023-04-29T15:57:11;4.23;;;3.73;;
78903;SDS011;68291;49.602;8.722;2023-04-29T16:00:08;4.00;;;3.20;;
78903;SDS011;68291;49.602;8.722;2023-04-29T16:02:49;3.23;;;2.93;;
78903;SDS011;68291;49.602;8.722;2023-04-29T16:05:54;4.30;;;3.30;;
78903;SDS011;68291;49.602;8.722;2023-04-29T16:08:42;3.63;;;3.30;;
78903;SDS011;68291;49.602;8.722;2023-04-29T16:11:14;3.70;;;3.30;;
78903;SDS011;68291;49.602;8.722;2023-04-29T16:14:10;3.70;;;3.10;;
78903;SDS011;68291;49.602;8.722;2023-04-29T16:16:43;3.57;;;3.27;;
78903;SDS011;68291;49.602;8.722;2023-04-29T16:19:38;3.33;;;2.97;;
78903;SDS011;68291;49.602;8.722;2023-04-29T16:22:11;3.17;;;2.87;;
78903;SDS011;68291;49.602;8.722;2023-04-29T16:24:52;4.67;;;3.23;;
78903;SDS011;68291;49.602;8.722;2023-04-29T16:27:24;4.90;;;3.13;;
78903;SDS011;68291;49.602;8.722;2023-04-29T16:30:12;3.73;;;3.00;;
78903;SDS011;68291;49.602;8.722;2023-04-29T16:33:06;3.57;;;3.27;;
78903;SDS011;68291;49.602;8.722;2023-04-29T16:35:47;3.47;;;3.17;;
78903;SDS011;68291;49.602;8.722;2023-04-29T16:41:53;3.53;;;3.00;;
78903;SDS011;68291;49.602;8.722;2023-04-29T16:44:36;3.37;;;3.07;;
78903;SDS011;68291;49.602;8.722;2023-04-29T16:47:09;4.60;;;3.33;;
78903;SDS011;68291;49.602;8.722;2023-04-29T16:49:55;3.50;;;3.20;;
78903;SDS011;68291;49.602;8.722;2023-04-29T16:52:29;3.23;;;2.93;;
78903;SDS011;68291;49.602;8.722;2023-04-29T16:58:22;3.37;;;2.90;;
78903;SDS011;68291;49.602;8.722;2023-04-29T17:01:18;3.73;;;3.10;;
78903;SDS011;68291;49.602;8.722;2023-04-29T17:04:15;3.67;;;2.67;;
78903;SDS011;68291;49.602;8.722;2023-04-29T17:07:03;3.50;;;3.20;;
78903;SDS011;68291;49.602;8.722;2023-04-29T17:09:40;3.67;;;3.30;;